createdAt,value
2018-09-02T00:00:43.417Z,22.06
2018-09-02T00:01:43.440Z,22.09
2018-09-02T00:02:43.462Z,22.08
2018-09-02T00:03:43.485Z,22.11
2018-09-02T00:04:43.507Z,22.08
2018-09-02T00:05:43.531Z,22.06
2018-09-02T00:06:43.558Z,22.06
2018-09-02T00:07:43.582Z,22.06
2018-09-02T00:08:43.604Z,22.09
2018-09-02T00:09:43.629Z,22.06
2018-09-02T00:10:43.658Z,22.06
2018-09-02T00:11:43.678Z,22.05
2018-09-02T00:12:43.700Z,22.05
2018-09-02T00:13:43.726Z,22.01
2018-09-02T00:14:43.746Z,22.04
2018-09-02T00:15:43.768Z,22.01
2018-09-02T00:16:43.795Z,22.04
2018-09-02T00:17:43.820Z,22.01
2018-09-02T00:18:43.839Z,22.05
2018-09-02T00:19:43.863Z,21.99
2018-09-02T00:20:43.888Z,22.06
2018-09-02T00:21:43.913Z,22.01
2018-09-02T00:22:43.942Z,21.98
2018-09-02T00:23:43.959Z,22.06
2018-09-02T00:24:43.981Z,21.98
2018-09-02T00:25:44.009Z,22.05
2018-09-02T00:26:44.036Z,21.98
2018-09-02T00:27:44.057Z,22.05
2018-09-02T00:28:44.083Z,22.01
2018-09-02T00:29:44.108Z,22.02
2018-09-02T00:30:44.127Z,22.01
2018-09-02T00:31:44.153Z,21.93
2018-09-02T00:32:44.175Z,21.98
2018-09-02T00:33:44.228Z,22.04
2018-09-02T00:34:44.226Z,22.01
2018-09-02T00:35:44.248Z,22.02
2018-09-02T00:36:44.271Z,22.02
2018-09-02T00:37:44.297Z,21.96
2018-09-02T00:38:44.314Z,21.98
2018-09-02T00:39:44.337Z,21.98
2018-09-02T00:40:44.369Z,21.96
2018-09-02T00:41:44.390Z,21.98
2018-09-02T00:42:44.411Z,21.99
2018-09-02T00:43:44.433Z,22.02
2018-09-02T00:44:44.457Z,21.99
2018-09-02T00:45:44.479Z,22.01
2018-09-02T00:46:44.507Z,21.96
2018-09-02T00:47:44.529Z,21.93
2018-09-02T00:48:44.550Z,21.94
2018-09-02T00:49:44.574Z,21.99
2018-09-02T00:50:44.603Z,22.01
2018-09-02T00:51:44.625Z,21.99
2018-09-02T00:52:44.650Z,21.96
2018-09-02T00:53:44.673Z,21.99
2018-09-02T00:54:44.696Z,22.04
2018-09-02T00:55:44.718Z,21.99
2018-09-02T00:56:44.743Z,21.94
2018-09-02T00:57:44.773Z,22.01
2018-09-02T00:58:44.789Z,21.93
2018-09-02T00:59:44.814Z,21.99
2018-09-02T01:00:44.836Z,21.99
2018-09-02T01:01:44.860Z,21.98
2018-09-02T01:02:44.889Z,21.93
2018-09-02T01:03:44.911Z,21.98
2018-09-02T01:04:44.931Z,21.98
2018-09-02T01:05:44.955Z,21.94
2018-09-02T01:06:44.982Z,22.01
2018-09-02T01:07:45.005Z,21.96
2018-09-02T01:08:45.027Z,21.90
2018-09-02T01:09:45.052Z,21.96
2018-09-02T01:10:45.072Z,21.90
2018-09-02T01:11:45.093Z,21.96
2018-09-02T01:12:45.122Z,21.90
2018-09-02T01:13:45.146Z,21.86
2018-09-02T01:14:45.168Z,21.90
2018-09-02T01:15:45.196Z,21.94
2018-09-02T01:16:45.212Z,21.93
2018-09-02T01:17:45.236Z,21.86
2018-09-02T01:18:45.266Z,21.93
2018-09-02T01:19:45.288Z,21.91
2018-09-02T01:20:45.306Z,21.82
2018-09-02T01:21:45.336Z,21.93
2018-09-02T01:22:45.357Z,21.89
2018-09-02T01:23:45.382Z,21.86
2018-09-02T01:24:45.410Z,21.90
2018-09-02T01:25:45.430Z,21.89
2018-09-02T01:26:45.452Z,21.90
2018-09-02T01:27:45.473Z,21.91
2018-09-02T01:28:45.498Z,21.94
2018-09-02T01:29:45.524Z,21.90
2018-09-02T01:30:45.543Z,21.90
2018-09-02T01:31:45.564Z,21.93
2018-09-02T01:32:45.596Z,21.91
2018-09-02T01:33:45.616Z,21.90
2018-09-02T01:34:45.642Z,21.86
2018-09-02T01:35:45.665Z,21.93
2018-09-02T01:36:45.686Z,21.93
2018-09-02T01:37:45.708Z,21.90
2018-09-02T01:38:45.735Z,21.89
2018-09-02T01:39:45.761Z,21.90
2018-09-02T01:40:45.784Z,21.98
2018-09-02T01:41:45.808Z,21.89
2018-09-02T01:42:45.828Z,21.96
2018-09-02T01:43:45.851Z,21.91
2018-09-02T01:44:45.878Z,21.94
2018-09-02T01:45:45.900Z,21.89
2018-09-02T01:46:45.921Z,21.91
2018-09-02T01:47:45.944Z,21.83
2018-09-02T01:48:45.969Z,21.85
2018-09-02T01:49:45.995Z,21.90
2018-09-02T01:50:46.022Z,21.86
2018-09-02T01:51:46.044Z,21.94
2018-09-02T01:52:46.064Z,21.86
2018-09-02T01:53:46.091Z,21.94
2018-09-02T01:54:46.115Z,21.93
2018-09-02T01:55:46.138Z,21.86
2018-09-02T01:56:46.161Z,21.90
2018-09-02T01:57:46.183Z,21.86
2018-09-02T01:58:46.205Z,21.79
2018-09-02T01:59:46.228Z,21.82
2018-09-02T02:00:46.258Z,21.86
2018-09-02T02:01:46.283Z,21.85
2018-09-02T02:02:46.300Z,21.75
2018-09-02T02:03:46.324Z,21.82
2018-09-02T02:04:46.344Z,21.90
2018-09-02T02:05:46.369Z,21.82
2018-09-02T02:06:46.397Z,21.85
2018-09-02T02:07:46.422Z,21.91
2018-09-02T02:08:46.438Z,21.83
2018-09-02T02:09:46.465Z,21.90
2018-09-02T02:10:46.491Z,21.82
2018-09-02T02:11:46.511Z,21.83
2018-09-02T02:12:46.540Z,21.85
2018-09-02T02:13:46.569Z,21.86
2018-09-02T02:14:46.582Z,21.82
2018-09-02T02:15:46.604Z,21.85
2018-09-02T02:16:46.633Z,21.83
2018-09-02T02:17:46.657Z,21.83
2018-09-02T02:18:46.674Z,21.79
2018-09-02T02:19:46.696Z,21.89
2018-09-02T02:20:46.726Z,21.89
2018-09-02T02:21:46.748Z,21.86
2018-09-02T02:22:46.774Z,21.81
2018-09-02T02:23:46.800Z,21.90
2018-09-02T02:24:46.817Z,21.85
2018-09-02T02:25:46.840Z,21.85
2018-09-02T02:26:46.870Z,21.85
2018-09-02T02:27:46.892Z,21.85
2018-09-02T02:28:46.912Z,21.75
2018-09-02T02:29:46.938Z,21.81
2018-09-02T02:30:46.958Z,21.79
2018-09-02T02:31:46.980Z,21.70
2018-09-02T02:32:47.010Z,21.75
2018-09-02T02:33:47.033Z,21.81
2018-09-02T02:34:47.053Z,21.79
2018-09-02T02:35:47.076Z,21.71
2018-09-02T02:36:47.096Z,21.91
2018-09-02T02:37:47.122Z,21.74
2018-09-02T02:38:47.153Z,21.74
2018-09-02T02:39:47.176Z,21.74
2018-09-02T02:40:47.197Z,21.89
2018-09-02T02:41:47.220Z,21.74
2018-09-02T02:42:47.239Z,21.85
2018-09-02T02:43:47.265Z,21.82
2018-09-02T02:44:47.289Z,21.83
2018-09-02T02:45:47.311Z,21.73
2018-09-02T02:46:47.340Z,21.79
2018-09-02T02:47:47.362Z,21.79
2018-09-02T02:48:47.380Z,21.75
2018-09-02T02:49:47.403Z,21.85
2018-09-02T02:50:47.432Z,21.71
2018-09-02T02:51:47.454Z,21.85
2018-09-02T02:52:47.479Z,21.85
2018-09-02T02:53:47.503Z,21.82
2018-09-02T02:54:47.584Z,21.81
2018-09-02T02:55:47.547Z,21.77
2018-09-02T02:56:47.574Z,21.70
2018-09-02T02:57:47.596Z,21.70
2018-09-02T02:58:47.621Z,21.82
2018-09-02T02:59:47.640Z,21.75
2018-09-02T03:00:47.662Z,21.71
2018-09-02T03:01:47.685Z,21.85
2018-09-02T03:02:47.714Z,21.89
2018-09-02T03:03:47.739Z,21.86
2018-09-02T03:04:47.758Z,21.70
2018-09-02T03:05:47.787Z,21.79
2018-09-02T03:06:47.810Z,21.89
2018-09-02T03:07:47.832Z,21.83
2018-09-02T03:08:47.853Z,21.83
2018-09-02T03:09:47.877Z,21.71
2018-09-02T03:10:47.921Z,21.77
2018-09-02T03:11:47.931Z,21.79
2018-09-02T03:12:47.950Z,21.83
2018-09-02T03:13:47.971Z,21.79
2018-09-02T03:14:47.991Z,21.82
2018-09-02T03:15:48.015Z,21.79
2018-09-02T03:16:48.040Z,21.89
2018-09-02T03:17:48.078Z,21.82
2018-09-02T03:18:48.092Z,21.81
2018-09-02T03:19:48.108Z,21.81
2018-09-02T03:20:48.132Z,21.75
2018-09-02T03:21:48.160Z,21.79
2018-09-02T03:22:48.186Z,21.77
2018-09-02T03:23:48.208Z,21.85
2018-09-02T03:24:48.232Z,21.82
2018-09-02T03:25:48.251Z,21.77
2018-09-02T03:26:48.275Z,21.83
2018-09-02T03:27:48.303Z,21.85
2018-09-02T03:28:48.325Z,21.83
2018-09-02T03:29:48.348Z,21.83
2018-09-02T03:30:48.371Z,21.85
2018-09-02T03:31:48.390Z,21.82
2018-09-02T03:32:48.414Z,21.82
2018-09-02T03:33:48.440Z,21.79
2018-09-02T03:34:48.464Z,21.79
2018-09-02T03:35:48.486Z,21.73
2018-09-02T03:36:48.509Z,21.82
2018-09-02T03:37:48.538Z,21.83
2018-09-02T03:38:48.560Z,21.79
2018-09-02T03:39:48.583Z,21.85
2018-09-02T03:40:48.605Z,21.83
2018-09-02T03:41:48.625Z,21.73
2018-09-02T03:42:48.648Z,21.82
2018-09-02T03:43:48.677Z,21.75
2018-09-02T03:44:48.702Z,21.71
2018-09-02T03:45:48.722Z,21.70
2018-09-02T03:46:48.744Z,21.82
2018-09-02T03:47:48.765Z,21.82
2018-09-02T03:48:48.790Z,21.77
2018-09-02T03:49:48.816Z,21.70
2018-09-02T03:50:48.840Z,21.81
2018-09-02T03:51:48.860Z,21.75
2018-09-02T03:52:48.884Z,21.81
2018-09-02T03:53:48.912Z,21.73
2018-09-02T03:54:48.936Z,21.79
2018-09-02T03:55:48.956Z,21.77
2018-09-02T03:56:48.980Z,21.70
2018-09-02T03:57:49.000Z,21.70
2018-09-02T03:58:49.026Z,21.73
2018-09-02T03:59:49.051Z,21.71
2018-09-02T04:00:49.074Z,21.70
2018-09-02T04:01:49.144Z,21.67
2018-09-02T04:02:49.119Z,21.67
2018-09-02T04:03:49.142Z,21.71
2018-09-02T04:04:49.167Z,21.75
2018-09-02T04:05:49.194Z,21.73
2018-09-02T04:06:49.217Z,21.81
2018-09-02T04:07:49.237Z,21.81
2018-09-02T04:08:49.257Z,21.73
2018-09-02T04:09:49.284Z,21.81
2018-09-02T04:10:49.358Z,21.74
2018-09-02T04:11:49.337Z,21.68
2018-09-02T04:12:49.357Z,21.82
2018-09-02T04:13:49.376Z,21.82
2018-09-02T04:14:49.405Z,21.77
2018-09-02T04:15:49.426Z,21.71
2018-09-02T04:16:49.452Z,21.74
2018-09-02T04:17:49.471Z,21.73
2018-09-02T04:18:49.497Z,21.82
2018-09-02T04:19:49.518Z,21.77
2018-09-02T04:20:49.541Z,21.74
2018-09-02T04:21:49.569Z,21.81
2018-09-02T04:22:49.592Z,21.81
2018-09-02T04:23:49.611Z,21.82
2018-09-02T04:24:49.633Z,21.81
2018-09-02T04:25:49.663Z,21.82
2018-09-02T04:26:49.688Z,21.74
2018-09-02T04:27:49.707Z,21.86
2018-09-02T04:28:49.730Z,21.68
2018-09-02T04:29:49.751Z,21.70
2018-09-02T04:30:49.778Z,21.83
2018-09-02T04:31:49.802Z,21.81
2018-09-02T04:32:49.826Z,21.70
2018-09-02T04:33:49.963Z,21.83
2018-09-02T04:34:49.867Z,21.79
2018-09-02T04:35:49.890Z,21.85
2018-09-02T04:36:49.916Z,21.81
2018-09-02T04:37:49.944Z,21.81
2018-09-02T04:38:49.968Z,21.81
2018-09-02T04:39:49.983Z,21.83
2018-09-02T04:40:50.008Z,21.86
2018-09-02T04:41:50.035Z,21.74
2018-09-02T04:42:50.059Z,21.82
2018-09-02T04:43:50.083Z,21.75
2018-09-02T04:44:50.105Z,21.81
2018-09-02T04:45:50.129Z,21.82
2018-09-02T04:46:50.157Z,21.81
2018-09-02T04:47:50.173Z,21.82
2018-09-02T04:48:50.198Z,21.85
2018-09-02T04:49:50.226Z,21.89
2018-09-02T04:50:50.249Z,21.74
2018-09-02T04:51:50.269Z,21.82
2018-09-02T04:52:50.293Z,21.90
2018-09-02T04:53:50.312Z,21.90
2018-09-02T04:54:50.336Z,21.90
2018-09-02T04:55:50.365Z,21.85
2018-09-02T04:56:50.387Z,21.86
2018-09-02T04:57:50.408Z,21.90
2018-09-02T04:58:50.433Z,21.91
2018-09-02T04:59:50.453Z,22.01
2018-09-02T05:00:50.476Z,22.04
2018-09-02T05:01:50.504Z,22.23
2018-09-02T05:02:50.527Z,22.19
2018-09-02T05:03:50.553Z,22.21
2018-09-02T05:04:50.570Z,22.23
2018-09-02T05:05:50.596Z,22.33
2018-09-02T05:06:50.629Z,22.42
2018-09-02T05:07:50.650Z,22.30
2018-09-02T05:08:50.670Z,22.45
2018-09-02T05:09:50.690Z,22.54
2018-09-02T05:10:50.714Z,22.46
2018-09-02T05:11:50.740Z,22.59
2018-09-02T05:12:50.764Z,22.66
2018-09-02T05:13:50.783Z,22.79
2018-09-02T05:14:50.805Z,23.00
2018-09-02T05:15:50.834Z,23.00
2018-09-02T05:16:50.858Z,23.32
2018-09-02T05:17:50.884Z,23.47
2018-09-02T05:18:50.908Z,23.63
2018-09-02T05:19:50.926Z,23.72
2018-09-02T05:20:50.949Z,23.86
2018-09-02T05:21:50.977Z,23.97
2018-09-02T05:22:51.003Z,24.04
2018-09-02T05:23:51.029Z,24.14
2018-09-02T05:24:51.046Z,24.16
2018-09-02T05:25:51.071Z,24.31
2018-09-02T05:26:51.091Z,24.34
2018-09-02T05:27:51.124Z,24.42
2018-09-02T05:28:51.147Z,24.44
2018-09-02T05:29:51.166Z,24.55
2018-09-02T05:30:51.192Z,24.70
2018-09-02T05:31:51.212Z,24.89
2018-09-02T05:32:51.238Z,24.89
2018-09-02T05:33:51.267Z,24.68
2018-09-02T05:34:51.290Z,24.60
2018-09-02T05:35:51.309Z,24.56
2018-09-02T05:36:51.405Z,24.56
2018-09-02T05:37:51.363Z,24.52
2018-09-02T05:38:51.388Z,24.77
2018-09-02T05:39:51.414Z,25.04
2018-09-02T05:40:51.442Z,25.31
2018-09-02T05:41:51.456Z,25.56
2018-09-02T05:42:51.487Z,25.86
2018-09-02T05:43:51.518Z,25.98
2018-09-02T05:44:51.536Z,26.16
2018-09-02T05:45:51.558Z,26.28
2018-09-02T05:46:51.581Z,26.16
2018-09-02T05:47:51.609Z,25.96
2018-09-02T05:48:51.633Z,25.72
2018-09-02T05:49:51.664Z,25.57
2018-09-02T05:50:51.688Z,25.44
2018-09-02T05:51:51.706Z,25.48
2018-09-02T05:52:51.731Z,25.39
2018-09-02T05:53:51.761Z,25.36
2018-09-02T05:54:51.788Z,25.36
2018-09-02T05:55:51.814Z,25.24
2018-09-02T05:56:51.838Z,25.27
2018-09-02T05:57:51.861Z,25.39
2018-09-02T05:58:51.889Z,25.27
2018-09-02T05:59:51.913Z,25.36
2018-09-02T06:00:51.939Z,25.38
2018-09-02T06:01:51.959Z,25.41
2018-09-02T06:02:52.011Z,25.44
2018-09-02T06:03:52.015Z,25.53
2018-09-02T06:04:52.041Z,25.45
2018-09-02T06:05:52.069Z,25.57
2018-09-02T06:06:52.095Z,25.57
2018-09-02T06:07:52.117Z,25.63
2018-09-02T06:08:52.143Z,25.74
2018-09-02T06:09:52.168Z,25.86
2018-09-02T06:10:52.201Z,26.27
2018-09-02T06:11:52.220Z,26.60
2018-09-02T06:12:52.247Z,26.88
2018-09-02T06:13:52.268Z,27.23
2018-09-02T06:14:52.295Z,27.27
2018-09-02T06:15:52.329Z,27.34
2018-09-02T06:16:52.355Z,27.46
2018-09-02T06:17:52.372Z,27.59
2018-09-02T06:18:52.402Z,27.65
2018-09-02T06:19:52.424Z,27.58
2018-09-02T06:20:52.449Z,27.61
2018-09-02T06:21:52.478Z,27.61
2018-09-02T06:22:52.503Z,27.46
2018-09-02T06:23:52.523Z,27.42
2018-09-02T06:24:52.551Z,27.39
2018-09-02T06:25:52.581Z,27.24
2018-09-02T06:26:52.608Z,27.11
2018-09-02T06:27:52.634Z,26.98
2018-09-02T06:28:52.661Z,26.86
2018-09-02T06:29:52.723Z,26.68
2018-09-02T06:30:52.712Z,26.49
2018-09-02T06:31:52.736Z,26.41
2018-09-02T06:32:52.852Z,26.35
2018-09-02T06:33:52.785Z,26.29
2018-09-02T06:34:52.811Z,26.20
2018-09-02T06:35:52.839Z,26.13
2018-09-02T06:36:52.865Z,26.04
2018-09-02T06:37:52.909Z,26.08
2018-09-02T06:38:52.921Z,26.04
2018-09-02T06:39:52.943Z,26.01
2018-09-02T06:40:52.977Z,26.08
2018-09-02T06:41:52.999Z,26.08
2018-09-02T06:42:53.027Z,26.03
2018-09-02T06:43:53.048Z,26.01
2018-09-02T06:44:53.075Z,26.03
2018-09-02T06:45:53.197Z,26.01
2018-09-02T06:46:53.123Z,26.13
2018-09-02T06:47:53.155Z,26.17
2018-09-02T06:48:53.180Z,26.24
2018-09-02T06:49:53.201Z,26.39
2018-09-02T06:50:53.229Z,26.46
2018-09-02T06:51:53.253Z,26.54
2018-09-02T06:52:53.279Z,26.71
2018-09-02T06:53:53.311Z,27.69
2018-09-02T06:54:53.335Z,29.23
2018-09-02T06:55:53.362Z,31.12
2018-09-02T06:56:53.388Z,32.56
2018-09-02T06:57:53.410Z,32.87
2018-09-02T06:58:53.434Z,32.14
2018-09-02T06:59:53.465Z,30.94
2018-09-02T07:00:53.489Z,30.23
2018-09-02T07:01:53.521Z,29.51
2018-09-02T07:02:53.548Z,29.25
2018-09-02T07:03:53.569Z,28.91
2018-09-02T07:04:53.596Z,28.55
2018-09-02T07:05:53.626Z,28.28
2018-09-02T07:06:53.654Z,28.13
2018-09-02T07:07:53.681Z,27.93
2018-09-02T07:08:53.708Z,27.69
2018-09-02T07:09:53.733Z,27.49
2018-09-02T07:10:53.759Z,27.39
2018-09-02T07:11:53.788Z,27.28
2018-09-02T07:12:53.816Z,27.16
2018-09-02T07:13:53.839Z,27.13
2018-09-02T07:14:53.866Z,26.98
2018-09-02T07:15:53.889Z,26.97
2018-09-02T07:16:53.917Z,26.88
2018-09-02T07:17:53.949Z,26.84
2018-09-02T07:18:53.975Z,26.83
2018-09-02T07:19:54.004Z,26.81
2018-09-02T07:20:54.025Z,26.68
2018-09-02T07:21:54.060Z,26.68
2018-09-02T07:22:54.084Z,26.56
2018-09-02T07:23:54.107Z,26.60
2018-09-02T07:24:54.137Z,26.51
2018-09-02T07:25:54.156Z,26.53
2018-09-02T07:26:54.183Z,26.51
2018-09-02T07:27:54.216Z,26.38
2018-09-02T07:28:54.240Z,26.34
2018-09-02T07:29:54.262Z,26.36
2018-09-02T07:30:54.297Z,26.21
2018-09-02T07:31:54.317Z,26.21
2018-09-02T07:32:54.344Z,26.20
2018-09-02T07:33:54.375Z,26.13
2018-09-02T07:34:54.402Z,26.03
2018-09-02T07:35:54.421Z,26.09
2018-09-02T07:36:54.448Z,26.00
2018-09-02T07:37:54.478Z,25.89
2018-09-02T07:38:54.505Z,26.00
2018-09-02T07:39:54.533Z,25.90
2018-09-02T07:40:54.558Z,25.97
2018-09-02T07:41:54.583Z,25.97
2018-09-02T07:42:54.608Z,25.86
2018-09-02T07:43:54.653Z,25.89
2018-09-02T07:44:54.667Z,25.81
2018-09-02T07:45:54.687Z,25.83
2018-09-02T07:46:54.714Z,25.83
2018-09-02T07:47:54.739Z,25.75
2018-09-02T07:48:54.766Z,25.82
2018-09-02T07:49:54.796Z,25.85
2018-09-02T07:50:54.823Z,25.75
2018-09-02T07:51:54.845Z,25.69
2018-09-02T07:52:54.876Z,25.75
2018-09-02T07:53:54.901Z,25.69
2018-09-02T07:54:54.928Z,25.71
2018-09-02T07:55:54.950Z,25.74
2018-09-02T07:56:54.978Z,25.72
2018-09-02T07:57:55.001Z,25.69
2018-09-02T07:58:55.027Z,25.74
2018-09-02T07:59:55.059Z,25.74
2018-09-02T08:00:55.084Z,25.71
2018-09-02T08:01:55.107Z,25.64
2018-09-02T08:02:55.134Z,25.64
2018-09-02T08:03:55.157Z,25.74
2018-09-02T08:04:55.184Z,25.59
2018-09-02T08:05:55.215Z,25.69
2018-09-02T08:06:55.242Z,25.61
2018-09-02T08:07:55.263Z,25.64
2018-09-02T08:08:55.290Z,25.63
2018-09-02T08:09:55.321Z,25.66
2018-09-02T08:10:55.347Z,25.56
2018-09-02T08:11:55.371Z,25.57
2018-09-02T08:12:55.605Z,25.60
2018-09-02T08:13:55.418Z,25.57
2018-09-02T08:14:55.445Z,25.57
2018-09-02T08:15:55.474Z,25.57
2018-09-02T08:16:55.501Z,25.53
2018-09-02T08:17:55.526Z,25.60
2018-09-02T08:18:55.550Z,25.54
2018-09-02T08:19:55.591Z,25.57
2018-09-02T08:20:55.602Z,25.54
2018-09-02T08:21:55.632Z,25.51
2018-09-02T08:22:55.662Z,25.54
2018-09-02T08:23:55.678Z,25.54
2018-09-02T08:24:55.706Z,25.53
2018-09-02T08:25:55.734Z,25.53
2018-09-02T08:26:55.763Z,25.46
2018-09-02T08:27:55.789Z,25.59
2018-09-02T08:28:55.820Z,25.51
2018-09-02T08:29:55.842Z,25.51
2018-09-02T08:30:55.864Z,25.53
2018-09-02T08:31:55.894Z,25.46
2018-09-02T08:32:55.946Z,25.49
2018-09-02T08:33:55.942Z,25.49
2018-09-02T08:34:55.968Z,25.46
2018-09-02T08:35:55.991Z,25.51
2018-09-02T08:36:56.016Z,25.48
2018-09-02T08:37:56.048Z,25.53
2018-09-02T08:38:56.214Z,25.51
2018-09-02T08:39:56.098Z,25.41
2018-09-02T08:40:56.125Z,25.48
2018-09-02T08:41:56.154Z,25.44
2018-09-02T08:42:56.181Z,25.42
2018-09-02T08:43:56.203Z,25.44
2018-09-02T08:44:56.235Z,25.44
2018-09-02T08:45:56.252Z,25.44
2018-09-02T08:46:56.279Z,25.44
2018-09-02T08:47:56.308Z,25.44
2018-09-02T08:48:56.335Z,25.45
2018-09-02T08:49:56.356Z,25.41
2018-09-02T08:50:56.380Z,25.39
2018-09-02T08:51:56.410Z,25.48
2018-09-02T08:52:56.437Z,25.46
2018-09-02T08:53:56.466Z,25.49
2018-09-02T08:54:56.494Z,25.48
2018-09-02T08:55:56.521Z,25.44
2018-09-02T08:56:56.539Z,25.44
2018-09-02T08:57:56.570Z,25.48
2018-09-02T08:58:56.597Z,25.45
2018-09-02T08:59:56.620Z,25.48
2018-09-02T09:00:56.648Z,25.44
2018-09-02T09:01:56.669Z,25.45
2018-09-02T09:02:56.698Z,25.44
2018-09-02T09:03:56.723Z,25.44
2018-09-02T09:04:56.749Z,25.48
2018-09-02T09:05:56.779Z,25.44
2018-09-02T09:06:56.807Z,25.46
2018-09-02T09:07:56.912Z,25.49
2018-09-02T09:08:57.193Z,25.45
2018-09-02T09:09:56.876Z,25.49
2018-09-02T09:10:56.904Z,25.56
2018-09-02T09:11:56.934Z,25.54
2018-09-02T09:12:56.963Z,25.61
2018-09-02T09:13:57.042Z,25.59
2018-09-02T09:14:57.010Z,25.56
2018-09-02T09:15:57.033Z,25.61
2018-09-02T09:16:57.089Z,25.57
2018-09-02T09:17:57.089Z,25.63
2018-09-02T09:18:57.116Z,25.57
2018-09-02T09:19:57.141Z,25.60
2018-09-02T09:20:57.176Z,25.59
2018-09-02T09:21:57.193Z,25.56
2018-09-02T09:22:57.223Z,25.57
2018-09-02T09:23:57.306Z,25.63
2018-09-02T09:24:57.326Z,25.64
2018-09-02T09:25:57.295Z,25.56
2018-09-02T09:26:57.321Z,25.54
2018-09-02T09:27:57.349Z,25.53
2018-09-02T09:28:57.391Z,25.54
2018-09-02T09:29:57.397Z,25.57
2018-09-02T09:30:57.424Z,25.48
2018-09-02T09:31:57.452Z,25.49
2018-09-02T09:32:57.478Z,25.51
2018-09-02T09:33:57.508Z,25.45
2018-09-02T09:34:57.537Z,25.51
2018-09-02T09:35:57.554Z,25.44
2018-09-02T09:36:57.582Z,25.48
2018-09-02T09:37:57.613Z,25.39
2018-09-02T09:38:57.639Z,25.41
2018-09-02T09:39:57.662Z,25.29
2018-09-02T09:40:57.689Z,25.39
2018-09-02T09:41:57.714Z,25.31
2018-09-02T09:42:57.736Z,25.24
2018-09-02T09:43:57.770Z,25.36
2018-09-02T09:44:57.797Z,25.34
2018-09-02T09:45:57.877Z,25.29
2018-09-02T09:46:57.846Z,25.34
2018-09-02T09:47:57.868Z,25.41
2018-09-02T09:48:57.893Z,25.29
2018-09-02T09:49:57.923Z,25.29
2018-09-02T09:50:57.953Z,25.34
2018-09-02T09:51:57.970Z,25.31
2018-09-02T09:52:57.997Z,25.35
2018-09-02T09:53:58.028Z,25.27
2018-09-02T09:54:58.053Z,25.30
2018-09-02T09:55:58.080Z,25.30
2018-09-02T09:56:58.107Z,25.29
2018-09-02T09:57:58.130Z,25.34
2018-09-02T09:58:58.156Z,25.36
2018-09-02T09:59:58.183Z,25.27
2018-09-02T10:00:58.209Z,25.41
2018-09-02T10:01:58.234Z,25.27
2018-09-02T10:02:58.258Z,25.35
2018-09-02T10:03:58.284Z,25.30
2018-09-02T10:04:58.314Z,25.41
2018-09-02T10:05:58.348Z,25.35
2018-09-02T10:06:58.371Z,25.45
2018-09-02T10:07:58.386Z,25.39
2018-09-02T10:08:58.413Z,25.51
2018-09-02T10:09:58.518Z,25.45
2018-09-02T10:10:58.475Z,25.48
2018-09-02T10:11:58.497Z,25.44
2018-09-02T10:12:58.524Z,25.49
2018-09-02T10:13:58.545Z,25.45
2018-09-02T10:14:58.573Z,25.45
2018-09-02T10:15:58.600Z,25.46
2018-09-02T10:16:58.625Z,25.46
2018-09-02T10:17:58.665Z,25.39
2018-09-02T10:18:58.676Z,25.48
2018-09-02T10:19:58.700Z,25.41
2018-09-02T10:20:58.726Z,25.41
2018-09-02T10:21:58.760Z,25.38
2018-09-02T10:22:58.784Z,25.39
2018-09-02T10:23:58.805Z,25.27
2018-09-02T10:24:58.830Z,25.30
2018-09-02T10:25:58.862Z,25.31
2018-09-02T10:26:58.890Z,25.31
2018-09-02T10:27:58.912Z,25.23
2018-09-02T10:28:58.939Z,25.35
2018-09-02T10:29:58.960Z,25.31
2018-09-02T10:30:58.989Z,25.31
2018-09-02T10:31:59.018Z,25.29
2018-09-02T10:32:59.044Z,25.36
2018-09-02T10:33:59.067Z,25.36
2018-09-02T10:34:59.092Z,25.31
2018-09-02T10:35:59.117Z,25.35
2018-09-02T10:36:59.141Z,25.39
2018-09-02T10:37:59.178Z,25.30
2018-09-02T10:38:59.203Z,25.31
2018-09-02T10:39:59.218Z,25.27
2018-09-02T10:40:59.287Z,25.31
2018-09-02T10:41:59.277Z,25.35
2018-09-02T10:42:59.302Z,25.36
2018-09-02T10:43:59.329Z,25.34
2018-09-02T10:44:59.356Z,25.41
2018-09-02T10:45:59.378Z,25.31
2018-09-02T10:46:59.404Z,25.31
2018-09-02T10:47:59.432Z,25.30
2018-09-02T10:48:59.502Z,25.36
2018-09-02T10:49:59.482Z,25.26
2018-09-02T10:50:59.506Z,25.36
2018-09-02T10:51:59.533Z,25.36
2018-09-02T10:52:59.560Z,25.35
2018-09-02T10:53:59.591Z,25.36
2018-09-02T10:54:59.615Z,25.34
2018-09-02T10:55:59.636Z,25.35
2018-09-02T10:56:59.664Z,25.23
2018-09-02T10:57:59.694Z,25.27
2018-09-02T10:58:59.722Z,25.36
2018-09-02T10:59:59.743Z,25.30
2018-09-02T11:00:59.769Z,25.19
2018-09-02T11:01:59.791Z,25.23
2018-09-02T11:02:59.817Z,25.17
2018-09-02T11:03:59.849Z,25.19
2018-09-02T11:04:59.876Z,25.19
2018-09-02T11:05:59.898Z,25.23
2018-09-02T11:06:59.924Z,25.20
2018-09-02T11:07:59.946Z,25.19
2018-09-02T11:08:59.973Z,25.11
2018-09-02T11:10:00.003Z,25.31
2018-09-02T11:11:00.029Z,25.31
2018-09-02T11:12:00.054Z,25.30
2018-09-02T11:13:00.151Z,25.36
2018-09-02T11:14:00.259Z,25.30
2018-09-02T11:15:00.129Z,25.30
2018-09-02T11:16:00.156Z,25.24
2018-09-02T11:17:00.180Z,25.31
2018-09-02T11:18:00.213Z,25.36
2018-09-02T11:19:00.237Z,25.31
2018-09-02T11:20:00.259Z,25.34
2018-09-02T11:21:00.288Z,25.36
2018-09-02T11:22:00.316Z,25.35
2018-09-02T11:23:00.339Z,25.34
2018-09-02T11:24:00.368Z,25.35
2018-09-02T11:25:00.395Z,25.27
2018-09-02T11:26:00.418Z,25.30
2018-09-02T11:27:00.443Z,25.23
2018-09-02T11:28:00.472Z,25.30
2018-09-02T11:29:00.499Z,25.35
2018-09-02T11:30:00.522Z,25.31
2018-09-02T11:31:00.547Z,25.26
2018-09-02T11:32:00.569Z,25.23
2018-09-02T11:33:00.596Z,25.19
2018-09-02T11:34:00.642Z,25.24
2018-09-02T11:35:00.652Z,25.16
2018-09-02T11:36:00.677Z,25.19
2018-09-02T11:37:00.699Z,25.22
2018-09-02T11:38:00.732Z,25.16
2018-09-02T11:39:00.758Z,25.22
2018-09-02T11:40:00.780Z,25.17
2018-09-02T11:41:00.806Z,25.27
2018-09-02T11:42:00.828Z,25.23
2018-09-02T11:43:00.855Z,25.20
2018-09-02T11:44:00.884Z,25.19
2018-09-02T11:45:00.982Z,25.12
2018-09-02T11:46:00.932Z,25.20
2018-09-02T11:47:01.045Z,25.22
2018-09-02T11:48:00.985Z,25.27
2018-09-02T11:49:01.010Z,25.20
2018-09-02T11:50:01.043Z,25.19
2018-09-02T11:51:01.067Z,25.20
2018-09-02T11:52:01.088Z,25.23
2018-09-02T11:53:01.112Z,25.22
2018-09-02T11:54:01.143Z,25.26
2018-09-02T11:55:01.170Z,25.16
2018-09-02T11:56:01.198Z,25.20
2018-09-02T11:57:01.221Z,25.23
2018-09-02T11:58:01.246Z,25.19
2018-09-02T11:59:01.271Z,25.11
2018-09-02T12:00:01.304Z,25.19
2018-09-02T12:01:01.326Z,25.23
2018-09-02T12:02:01.353Z,25.19
2018-09-02T12:03:01.376Z,25.22
2018-09-02T12:04:01.493Z,25.23
2018-09-02T12:05:01.425Z,25.22
2018-09-02T12:06:01.453Z,25.19
2018-09-02T12:07:01.481Z,25.19
2018-09-02T12:08:01.502Z,25.17
2018-09-02T12:09:01.533Z,25.26
2018-09-02T12:10:01.559Z,25.24
2018-09-02T12:11:01.585Z,25.11
2018-09-02T12:12:01.609Z,25.19
2018-09-02T12:13:01.638Z,25.23
2018-09-02T12:14:01.731Z,25.19
2018-09-02T12:15:01.684Z,25.17
2018-09-02T12:16:01.710Z,25.14
2018-09-02T12:17:01.742Z,25.24
2018-09-02T12:18:01.761Z,25.11
2018-09-02T12:19:01.787Z,25.22
2018-09-02T12:20:01.814Z,25.24
2018-09-02T12:21:01.837Z,25.19
2018-09-02T12:22:01.867Z,25.20
2018-09-02T12:23:01.893Z,25.19
2018-09-02T12:24:01.917Z,25.23
2018-09-02T12:25:01.942Z,25.12
2018-09-02T12:26:01.973Z,25.16
2018-09-02T12:27:01.998Z,25.23
2018-09-02T12:28:02.022Z,25.09
2018-09-02T12:29:02.048Z,25.19
2018-09-02T12:30:02.070Z,25.22
2018-09-02T12:31:02.095Z,25.20
2018-09-02T12:32:02.127Z,25.22
2018-09-02T12:33:02.150Z,25.19
2018-09-02T12:34:02.174Z,25.17
2018-09-02T12:35:02.199Z,25.07
2018-09-02T12:36:02.232Z,25.09
2018-09-02T12:37:02.256Z,25.14
2018-09-02T12:38:02.282Z,25.12
2018-09-02T12:39:02.308Z,25.12
2018-09-02T12:40:02.327Z,25.09
2018-09-02T12:41:02.352Z,25.14
2018-09-02T12:42:02.387Z,25.11
2018-09-02T12:43:02.410Z,25.12
2018-09-02T12:44:02.435Z,25.09
2018-09-02T12:45:02.463Z,25.09
2018-09-02T12:46:02.485Z,25.02
2018-09-02T12:47:02.510Z,25.04
2018-09-02T12:48:02.596Z,25.04
2018-09-02T12:49:02.565Z,25.11
2018-09-02T12:50:02.588Z,25.07
2018-09-02T12:51:02.615Z,25.08
2018-09-02T12:52:02.636Z,25.01
2018-09-02T12:53:02.664Z,25.08